createdAt,value
2023-03-13T00:02:32.322Z,9.20
2023-03-13T00:08:41.210Z,21.85
2023-03-13T00:14:37.976Z,16.73
2023-03-13T00:20:25.117Z,21.33
2023-03-13T00:26:14.755Z,16.80
2023-03-13T00:32:02.990Z,22.77
2023-03-13T00:37:49.990Z,29.52
2023-03-13T00:43:37.118Z,20.98
2023-03-13T00:49:23.976Z,12.10
2023-03-13T00:55:10.980Z,17.55
2023-03-13T01:00:58.110Z,20.05
2023-03-13T01:06:45.133Z,11.52
2023-03-13T01:12:32.091Z,14.35
2023-03-13T01:18:19.545Z,18.02
2023-03-13T01:24:06.937Z,16.40
2023-03-13T01:29:57.186Z,13.95
2023-03-13T01:35:49.718Z,12.25
2023-03-13T01:41:38.095Z,8.68
2023-03-13T01:47:28.174Z,7.40
2023-03-13T01:53:26.745Z,8.80
2023-03-13T01:59:18.242Z,8.32
2023-03-13T02:05:07.044Z,7.55
2023-03-13T02:11:07.772Z,5.20
2023-03-13T02:16:55.541Z,4.70
2023-03-13T02:23:10.445Z,4.53
2023-03-13T02:28:57.364Z,7.88
2023-03-13T02:34:45.759Z,3.63
2023-03-13T02:40:39.542Z,2.95
2023-03-13T02:46:26.679Z,4.45
2023-03-13T02:52:16.422Z,5.40
2023-03-13T02:58:04.868Z,7.13
2023-03-13T03:03:55.676Z,5.18
2023-03-13T03:09:42.563Z,4.70
2023-03-13T03:15:35.187Z,13.02
2023-03-13T03:21:24.013Z,3.33
2023-03-13T03:27:12.069Z,2.58
2023-03-13T03:33:06.185Z,1.20
2023-03-13T03:38:53.149Z,2.38
2023-03-13T03:44:44.560Z,3.58
2023-03-13T03:50:32.889Z,3.65
2023-03-13T03:56:21.656Z,2.35
2023-03-13T04:02:13.789Z,0.60
2023-03-13T04:08:01.994Z,3.92
2023-03-13T04:13:49.024Z,1.65
2023-03-13T04:19:35.957Z,1.67
2023-03-13T04:25:23.428Z,12.93
2023-03-13T04:31:13.510Z,11.40
2023-03-13T04:37:18.848Z,4.30
2023-03-13T04:43:11.295Z,6.82
2023-03-13T04:49:08.820Z,5.97
2023-03-13T04:55:13.618Z,10.73
2023-03-13T05:01:17.115Z,6.45
2023-03-13T05:07:24.852Z,3.90
2023-03-13T05:13:11.630Z,3.50
2023-03-13T05:19:17.074Z,6.43
2023-03-13T05:25:21.714Z,18.02
2023-03-13T05:31:23.463Z,8.65
2023-03-13T05:37:21.207Z,21.05
2023-03-13T05:43:28.199Z,24.92
2023-03-13T05:49:41.280Z,8.95
2023-03-13T05:55:51.190Z,9.93
2023-03-13T06:02:00.729Z,15.85
2023-03-13T06:07:56.323Z,16.90
2023-03-13T06:13:43.345Z,10.52
2023-03-13T06:19:40.667Z,18.92
2023-03-13T06:25:27.555Z,15.43
2023-03-13T06:31:14.438Z,18.55
2023-03-13T06:37:01.582Z,25.13
2023-03-13T06:42:48.510Z,25.92
2023-03-13T06:48:35.312Z,17.63
2023-03-13T06:54:22.261Z,24.88
2023-03-13T07:00:13.681Z,20.73
2023-03-13T07:06:00.847Z,17.85
2023-03-13T07:11:47.816Z,30.63
2023-03-13T07:17:34.630Z,18.02
2023-03-13T07:23:24.706Z,34.05
2023-03-13T07:29:11.701Z,22.67
2023-03-13T07:34:58.541Z,20.25
2023-03-13T07:40:54.252Z,43.13
2023-03-13T07:46:41.426Z,24.17
2023-03-13T07:52:28.486Z,20.85
2023-03-13T07:58:15.119Z,23.33
2023-03-13T08:04:01.935Z,27.63
2023-03-13T08:09:51.710Z,32.15
2023-03-13T08:15:38.605Z,25.40
2023-03-13T08:21:29.111Z,30.75
2023-03-13T08:27:15.992Z,35.20
2023-03-13T08:33:02.876Z,30.10
2023-03-13T08:38:49.759Z,21.90
2023-03-13T08:44:36.668Z,31.75
2023-03-13T08:50:23.551Z,20.15
2023-03-13T08:56:12.399Z,36.17
2023-03-13T09:01:59.183Z,13.38
2023-03-13T09:07:46.162Z,25.15
2023-03-13T09:13:35.482Z,26.25
2023-03-13T09:19:22.411Z,35.63
2023-03-13T09:25:12.048Z,33.72
2023-03-13T09:31:09.118Z,37.97
2023-03-13T09:36:58.299Z,35.72
2023-03-13T09:42:51.720Z,21.02
2023-03-13T09:48:48.629Z,33.75
2023-03-13T09:54:40.240Z,28.15
2023-03-13T10:00:50.481Z,29.15
2023-03-13T10:06:43.702Z,18.67
2023-03-13T10:12:44.223Z,32.83
2023-03-13T10:18:33.068Z,30.55
2023-03-13T10:24:23.704Z,40.90
2023-03-13T10:30:23.482Z,32.70
2023-03-13T10:36:13.219Z,27.35
2023-03-13T10:42:11.121Z,23.70
2023-03-13T10:48:02.604Z,25.58
2023-03-13T10:59:47.922Z,27.58
2023-03-13T11:05:45.530Z,33.85
2023-03-13T11:11:44.769Z,39.78
2023-03-13T11:17:39.785Z,28.30
2023-03-13T11:23:30.163Z,31.40
2023-03-13T11:29:40.499Z,32.42
2023-03-13T11:35:27.250Z,30.75
2023-03-13T11:41:22.236Z,23.67
2023-03-13T11:47:30.380Z,32.70
2023-03-13T11:53:35.676Z,30.80
2023-03-13T11:59:34.913Z,24.05
2023-03-13T12:05:23.132Z,27.83
2023-03-13T12:11:29.874Z,23.98
2023-03-13T12:17:29.843Z,35.50
2023-03-13T12:23:21.041Z,29.25
2023-03-13T12:29:13.666Z,34.97
2023-03-13T12:36:43.573Z,26.38
2023-03-13T12:44:09.140Z,31.88
2023-03-13T13:24:02.521Z,36.55
2023-03-13T13:30:12.716Z,26.10
2023-03-13T13:44:32.927Z,22.42
2023-03-13T13:51:03.584Z,34.80
2023-03-13T13:56:57.856Z,20.95
2023-03-13T14:03:16.348Z,41.10
2023-03-13T14:09:29.754Z,20.83
2023-03-13T14:15:29.065Z,34.97
2023-03-13T14:21:33.672Z,32.13
2023-03-13T14:28:15.500Z,25.75
2023-03-13T14:34:21.639Z,18.98
2023-03-13T14:40:18.194Z,19.77
2023-03-13T14:46:15.596Z,24.27
2023-03-13T14:52:04.134Z,24.10
2023-03-13T14:57:56.275Z,28.35
2023-03-13T15:03:50.496Z,28.90
2023-03-13T15:09:48.021Z,20.27
2023-03-13T15:15:44.476Z,27.38
2023-03-13T15:21:35.118Z,22.55
2023-03-13T15:27:28.888Z,25.38
2023-03-13T15:33:38.962Z,34.67
2023-03-13T15:39:28.558Z,24.45
2023-03-13T15:45:44.850Z,35.65
2023-03-13T15:51:46.544Z,34.72
2023-03-13T15:58:06.256Z,20.27
2023-03-13T16:10:50.669Z,21.13
2023-03-13T16:16:38.068Z,27.35
2023-03-13T16:22:34.827Z,36.20
2023-03-13T16:28:22.334Z,17.95
2023-03-13T16:34:25.485Z,25.17
2023-03-13T16:41:20.288Z,21.05
2023-03-13T16:47:04.169Z,23.20
2023-03-13T16:52:53.396Z,33.95
2023-03-13T16:58:49.969Z,26.27
2023-03-13T17:04:39.550Z,28.35
2023-03-13T17:10:39.671Z,30.07
2023-03-13T17:16:35.977Z,24.48
2023-03-13T17:29:36.009Z,24.63
2023-03-13T17:35:23.960Z,20.80
2023-03-13T17:41:12.889Z,21.33
2023-03-13T17:47:02.805Z,27.55
2023-03-13T17:52:53.770Z,16.85
2023-03-13T17:58:41.068Z,26.30
2023-03-13T18:04:28.122Z,26.40
2023-03-13T18:10:25.055Z,14.18
2023-03-13T18:16:25.555Z,28.63
2023-03-13T18:22:18.886Z,33.33
2023-03-13T18:28:06.612Z,29.63
2023-03-13T18:33:56.122Z,20.75
2023-03-13T18:39:47.451Z,30.45
2023-03-13T18:45:38.961Z,35.15
2023-03-13T18:51:26.146Z,21.50
2023-03-13T18:57:15.800Z,19.02
2023-03-13T19:03:02.835Z,17.27
2023-03-13T19:08:52.438Z,18.30
2023-03-13T19:14:39.416Z,22.77
2023-03-13T19:20:27.284Z,17.50
2023-03-13T19:26:17.638Z,17.23
2023-03-13T19:32:07.178Z,10.77
2023-03-13T19:37:54.160Z,22.67
2023-03-13T19:43:42.320Z,8.80
2023-03-13T19:49:29.274Z,12.00
2023-03-13T19:55:16.591Z,7.88
2023-03-13T20:09:34.208Z,24.73
2023-03-13T20:15:28.512Z,19.45
2023-03-13T20:21:48.290Z,10.05
2023-03-13T20:27:42.375Z,11.85
2023-03-13T20:33:29.784Z,20.52
2023-03-13T20:39:17.015Z,10.95
2023-03-13T20:45:11.939Z,26.67
2023-03-13T20:51:08.107Z,11.02
2023-03-13T20:58:30.984Z,11.32
2023-03-13T21:40:13.254Z,14.75
2023-03-13T21:46:05.861Z,9.90
2023-03-13T21:59:15.892Z,25.90
2023-03-13T22:06:18.067Z,8.23
2023-03-13T22:20:38.199Z,9.90
2023-03-13T22:26:16.393Z,26.23
2023-03-13T22:32:53.787Z,19.48
2023-03-13T22:38:40.709Z,24.60
2023-03-13T22:52:08.408Z,19.33
2023-03-13T22:58:32.396Z,16.17
2023-03-13T23:04:22.428Z,27.73
2023-03-13T23:10:22.515Z,13.98
2023-03-13T23:16:12.040Z,24.73
2023-03-13T23:23:18.234Z,18.37
2023-03-13T23:28:41.043Z,17.00
2023-03-13T23:35:22.195Z,18.90
2023-03-13T23:48:58.460Z,27.27
2023-03-13T23:54:45.269Z,21.45
